Time;durP1;ratioP1;P1;durP2;ratioP2;P2;SDS_P1;SDS_P2;PMS_P1;PMS_P2;Temp;Humidity;BMP_temperature;BMP_pressure;BME280_temperature;BME280_humidity;BME280_pressure;Samples;Min_cycle;Max_cycle;Signal;HPM_P1;HPM_P2
2021/06/18 00:00:00;;;;;;;6.65;6.03;;;;;;;15.18;97.68;92999.28;2105235;28;20035;-91
2021/06/18 00:01:01;;;;;;;6.63;6.03;;;;;;;15.19;97.41;92995.44;2090935;28;20020;-91
2021/06/18 00:02:03;;;;;;;7.43;6.25;;;;;;;15.15;97.10;92996.78;2090785;28;20052;-90
2021/06/18 00:03:04;;;;;;;6.70;6.10;;;;;;;15.06;97.02;92995.56;2093055;28;20017;-90
2021/06/18 00:04:04;;;;;;;8.05;6.07;;;;;;;15.02;97.90;92992.25;2091944;28;20470;-89
2021/06/18 00:05:09;;;;;;;6.78;6.07;;;;;;;15.08;97.87;92997.81;2091343;28;20025;-90
2021/06/18 00:06:09;;;;;;;6.68;6.10;;;;;;;15.02;97.64;92994.97;2093746;28;20060;-89
2021/06/18 00:07:10;;;;;;;7.63;6.43;;;;;;;14.94;98.08;92993.75;2097348;28;20076;-89
2021/06/18 00:08:11;;;;;;;8.85;6.05;;;;;;;14.97;97.08;92995.56;2090922;28;20600;-91
2021/06/18 00:09:12;;;;;;;6.93;6.22;;;;;;;14.97;98.10;92989.41;2090739;28;20021;-90
2021/06/18 00:10:14;;;;;;;8.25;6.03;;;;;;;14.94;98.00;92995.69;2103010;28;20133;-89
2021/06/18 00:11:15;;;;;;;7.55;6.18;;;;;;;14.91;97.64;92997.31;2100748;28;20078;-90
2021/06/18 00:12:16;;;;;;;6.68;6.07;;;;;;;14.84;98.09;92995.69;2107467;28;20387;-90
2021/06/18 00:13:16;;;;;;;7.10;6.40;;;;;;;14.95;98.43;93003.31;2098353;28;20031;-90
2021/06/18 00:14:17;;;;;;;6.30;5.65;;;;;;;14.96;97.98;92999.41;2090649;28;20025;-90
2021/06/18 00:15:19;;;;;;;6.80;6.22;;;;;;;14.98;97.94;93002.44;2098896;28;20131;-92
2021/06/18 00:16:20;;;;;;;8.35;6.10;;;;;;;14.98;97.54;92999.72;2099224;28;20526;-91
2021/06/18 00:17:21;;;;;;;8.38;5.88;;;;;;;14.95;96.89;93000.63;2099345;28;20020;-91
2021/06/18 00:18:21;;;;;;;6.55;6.00;;;;;;;14.94;97.43;92999.13;2115568;28;20435;-91
2021/06/18 00:19:22;;;;;;;7.80;5.97;;;;;;;14.93;97.75;92999.59;2114337;28;20019;-90
2021/06/18 00:20:23;;;;;;;6.32;5.82;;;;;;;14.90;97.05;93006.59;2090750;28;20029;-90
2021/06/18 00:21:24;;;;;;;6.22;5.72;;;;;;;14.84;98.07;93003.00;2090623;28;20033;-90
2021/06/18 00:22:25;;;;;;;7.57;6.03;;;;;;;14.89;97.70;92997.03;2096986;28;20024;-90
2021/06/18 00:23:26;;;;;;;8.25;6.60;;;;;;;14.88;98.66;93000.88;2090976;28;20517;-91
2021/06/18 00:24:27;;;;;;;6.30;5.78;;;;;;;14.88;98.03;93000.16;2098942;28;20078;-90
2021/06/18 00:25:28;;;;;;;6.57;5.82;;;;;;;14.85;98.35;93002.56;2098959;28;20554;-90
2021/06/18 00:26:28;;;;;;;9.85;6.68;;;;;;;14.95;97.29;93000.63;2107380;28;20024;-91
2021/06/18 00:27:29;;;;;;;6.57;5.85;;;;;;;14.89;97.97;92996.28;2107130;28;20464;-90
2021/06/18 00:28:30;;;;;;;7.40;5.65;;;;;;;14.91;97.80;93000.00;2099473;28;20402;-90
2021/06/18 00:29:30;;;;;;;8.25;6.10;;;;;;;14.94;98.21;92987.63;2093531;28;20177;-90
2021/06/18 00:30:31;;;;;;;7.10;6.20;;;;;;;14.93;98.96;92986.88;2103956;28;20157;-90
2021/06/18 00:31:32;;;;;;;6.78;6.10;;;;;;;14.94;98.27;92993.00;2115704;28;20437;-90
2021/06/18 00:32:33;;;;;;;6.97;6.03;;;;;;;14.82;98.33;92994.63;2124269;27;20110;-89
2021/06/18 00:33:34;;;;;;;6.78;5.72;;;;;;;14.79;98.02;92993.56;2115417;28;20178;-90
2021/06/18 00:34:34;;;;;;;6.32;5.70;;;;;;;14.86;98.42;92990.59;2104960;28;20036;-90
2021/06/18 00:35:35;;;;;;;6.75;5.95;;;;;;;14.86;98.14;92995.22;2093372;28;20102;-89
2021/06/18 00:36:36;;;;;;;6.40;5.80;;;;;;;14.86;97.61;92997.91;2095089;28;20047;-90
2021/06/18 00:37:37;;;;;;;7.00;6.35;;;;;;;14.86;98.35;92993.28;2106320;28;20049;-91
2021/06/18 00:38:38;;;;;;;6.43;5.90;;;;;;;14.80;99.01;92994.31;2092025;28;20029;-89
2021/06/18 00:39:40;;;;;;;8.20;5.97;;;;;;;14.85;99.03;92993.72;2090212;28;20107;-89
2021/06/18 00:40:41;;;;;;;6.80;6.13;;;;;;;14.88;98.90;92995.50;2092039;28;20067;-90
2021/06/18 00:41:42;;;;;;;8.02;6.68;;;;;;;14.92;98.85;93001.50;2103246;28;20134;-90
2021/06/18 00:42:42;;;;;;;8.52;6.57;;;;;;;14.93;98.75;92996.91;2101504;28;20032;-90
2021/06/18 00:43:43;;;;;;;6.43;5.90;;;;;;;14.84;98.29;93001.06;2108459;28;20027;-90
2021/06/18 00:44:44;;;;;;;6.63;6.13;;;;;;;14.89;98.63;93005.09;2105147;28;20024;-90
2021/06/18 00:45:45;;;;;;;6.20;5.70;;;;;;;14.92;99.04;93003.44;2094306;28;20016;-89
2021/06/18 00:46:46;;;;;;;8.20;5.88;;;;;;;14.94;98.76;92999.13;2103223;28;20032;-91
2021/06/18 00:47:50;;;;;;;8.45;6.30;;;;;;;14.90;98.35;93006.59;2103990;28;20030;-90
2021/06/18 00:48:51;;;;;;;6.10;5.60;;;;;;;14.91;99.12;93008.09;2091634;28;20586;-90
2021/06/18 00:49:54;;;;;;;7.32;6.15;;;;;;;14.95;98.83;92999.88;2098539;28;20099;-90
2021/06/18 00:50:55;;;;;;;6.47;5.78;;;;;;;14.93;99.24;92997.63;2095006;28;20024;-89
2021/06/18 00:51:57;;;;;;;6.15;5.55;;;;;;;14.89;98.77;92994.34;2106803;28;20077;-89
2021/06/18 00:52:58;;;;;;;6.50;5.95;;;;;;;14.99;99.07;92997.78;2090513;28;20036;-90
2021/06/18 00:53:59;;;;;;;6.10;5.60;;;;;;;14.99;98.39;93000.47;2098771;28;20125;-89
2021/06/18 00:55:00;;;;;;;6.45;5.85;;;;;;;14.95;98.77;92992.53;2090567;28;20050;-90
2021/06/18 00:56:01;;;;;;;6.72;5.90;;;;;;;14.93;98.26;92996.91;2090336;28;20052;-90
2021/06/18 00:57:02;;;;;;;7.53;5.85;;;;;;;14.93;98.22;92994.19;2090462;28;20032;-89
2021/06/18 00:58:03;;;;;;;6.32;5.72;;;;;;;14.84;98.11;92989.56;2092938;28;20048;-89
2021/06/18 00:59:04;;;;;;;6.35;5.85;;;;;;;14.91;98.52;92983.88;2090125;28;20065;-90
2021/06/18 01:00:07;;;;;;;7.13;5.53;;;;;;;14.91;98.08;92978.47;2091997;28;20091;-89
2021/06/18 01:01:08;;;;;;;6.45;5.82;;;;;;;14.89;97.89;92983.56;2097061;28;20031;-90
2021/06/18 01:02:09;;;;;;;7.22;6.50;;;;;;;14.91;98.31;92983.88;2090438;28;20052;-89
2021/06/18 01:03:10;;;;;;;6.50;6.00;;;;;;;14.89;99.18;92974.75;2092890;28;20111;-90
2021/06/18 01:04:10;;;;;;;6.40;5.90;;;;;;;14.94;98.41;92971.47;2090260;28;20035;-91
2021/06/18 01:05:13;;;;;;;6.47;5.90;;;;;;;14.88;98.00;92971.28;2109541;28;20020;-91
2021/06/18 01:06:21;;;;;;;5.97;5.50;;;;;;;14.88;97.80;92965.91;2110305;28;20543;-91
2021/06/18 01:07:44;;;;;;;11.45;6.03;;;;;;;14.89;97.87;92969.38;2106686;28;20048;-90
2021/06/18 01:08:54;;;;;;;6.60;6.00;;;;;;;14.86;98.28;92971.75;2105035;28;20102;-90
2021/06/18 01:09:57;;;;;;;6.28;5.72;;;;;;;14.91;98.37;92967.72;2102413;28;20021;-90
2021/06/18 01:11:25;;;;;;;6.50;5.90;;;;;;;14.88;98.24;92975.94;2106960;28;20384;-90
2021/06/18 01:12:28;;;;;;;6.07;5.53;;;;;;;14.88;98.99;92976.66;2102476;28;20020;-90
2021/06/18 01:13:48;;;;;;;5.90;5.38;;;;;;;14.92;99.37;92981.91;2103098;28;20111;-89
2021/06/18 01:15:27;;;;;;;6.60;5.60;;;;;;;14.94;98.54;92993.75;2099569;28;20115;-90
2021/06/18 01:16:37;;;;;;;6.32;5.72;;;;;;;14.90;97.74;92998.53;2102779;28;20054;-90
2021/06/18 01:17:49;;;;;;;5.45;4.93;;;;;;;15.08;94.75;92995.84;2098972;28;20028;-91
2021/06/18 01:18:57;;;;;;;5.18;4.22;;;;;;;15.65;85.84;92992.00;2100388;28;20033;-91
2021/06/18 01:20:46;;;;;;;5.35;4.75;;;;;;;15.55;88.90;92986.59;2095047;28;20035;-91
2021/06/18 01:21:53;;;;;;;7.13;4.72;;;;;;;15.60;87.00;92986.00;2102734;27;20055;-92
2021/06/18 01:22:56;;;;;;;5.88;4.80;;;;;;;15.54;88.14;92995.88;2112179;28;20024;-90
2021/06/18 01:23:59;;;;;;;5.10;4.38;;;;;;;15.52;88.77;93000.22;2112387;28;20559;-90
2021/06/18 01:25:22;;;;;;;7.78;4.57;;;;;;;15.39;89.76;93003.06;2091209;28;20025;-90
2021/06/18 01:26:23;;;;;;;6.25;4.70;;;;;;;15.36;90.36;92996.63;2104432;28;20390;-90
2021/06/18 01:27:43;;;;;;;7.57;4.70;;;;;;;15.35;89.96;92997.81;2112234;28;20036;-90
2021/06/18 01:28:57;;;;;;;5.88;4.22;;;;;;;15.27;91.56;93002.00;2096363;28;20024;-90
2021/06/18 01:30:16;;;;;;;6.53;4.57;;;;;;;15.20;90.62;92996.19;2100351;28;20024;-90
2021/06/18 01:31:21;;;;;;;7.47;4.45;;;;;;;15.20;90.27;92998.88;2100924;28;20020;-90
2021/06/18 01:32:36;;;;;;;5.30;4.80;;;;;;;15.21;90.61;92998.41;2114940;28;20028;-89
2021/06/18 01:33:43;;;;;;;5.00;4.57;;;;;;;15.16;91.93;93001.69;2108628;28;20092;-89
2021/06/18 01:34:44;;;;;;;6.68;4.80;;;;;;;15.12;91.20;92998.41;2099588;28;20115;-89
2021/06/18 01:35:50;;;;;;;6.10;4.80;;;;;;;15.17;91.42;92997.06;2087724;28;20118;-90
2021/06/18 01:36:58;;;;;;;5.72;4.80;;;;;;;15.17;91.14;92992.41;2096164;28;20077;-90
2021/06/18 01:38:02;;;;;;;7.15;5.00;;;;;;;15.19;90.91;93000.81;2098349;28;20032;-89
2021/06/18 01:39:05;;;;;;;6.38;4.75;;;;;;;15.22;91.04;92991.81;2100487;28;20073;-90
2021/06/18 01:40:09;;;;;;;5.20;4.57;;;;;;;15.22;91.55;92999.91;2111030;28;20019;-90
2021/06/18 01:41:14;;;;;;;5.18;4.72;;;;;;;15.21;91.27;92989.59;2097109;28;20055;-90
2021/06/18 01:42:16;;;;;;;5.47;4.95;;;;;;;15.16;91.19;92992.88;2094197;28;20063;-90
2021/06/18 01:43:20;;;;;;;5.35;4.85;;;;;;;15.14;90.61;92990.63;2100289;28;20074;-91
2021/06/18 01:44:22;;;;;;;5.00;4.50;;;;;;;15.06;91.88;92995.56;2102816;28;20059;-91
2021/06/18 01:45:26;;;;;;;5.57;4.53;;;;;;;15.03;91.66;92990.31;2098435;28;20037;-91
2021/06/18 01:46:32;;;;;;;5.03;4.55;;;;;;;14.97;91.96;92997.47;2107617;28;20045;-91
2021/06/18 01:47:32;;;;;;;6.03;4.65;;;;;;;15.00;91.75;92996.59;2103582;28;20024;-90
2021/06/18 01:48:34;;;;;;;5.03;4.63;;;;;;;14.92;92.11;92992.69;2089805;28;20171;-89
2021/06/18 01:49:39;;;;;;;18.77;5.50;;;;;;;14.95;92.06;92991.81;2084240;28;20025;-90
2021/06/18 01:50:41;;;;;;;5.38;4.88;;;;;;;14.93;91.89;92994.19;2098728;28;20020;-91
2021/06/18 01:51:44;;;;;;;4.70;4.25;;;;;;;14.82;93.14;92987.28;2095484;28;20034;-92
2021/06/18 01:52:51;;;;;;;4.88;4.47;;;;;;;14.85;93.38;92985.66;2094306;28;20021;-91
2021/06/18 01:53:54;;;;;;;5.07;4.57;;;;;;;14.91;93.39;92983.88;2094849;28;20480;-91
2021/06/18 01:54:56;;;;;;;5.05;4.65;;;;;;;14.91;92.61;92980.44;2098072;28;20063;-90
2021/06/18 01:55:58;;;;;;;7.55;4.50;;;;;;;14.89;92.39;92975.50;2098372;28;20020;-90
2021/06/18 01:57:01;;;;;;;6.93;4.93;;;;;;;14.84;92.47;92976.09;2090079;28;20568;-91
2021/06/18 01:58:04;;;;;;;5.10;4.60;;;;;;;14.75;92.64;92978.75;2090462;28;20515;-91
2021/06/18 01:59:06;;;;;;;6.50;4.57;;;;;;;14.75;92.93;92981.44;2095459;28;20020;-90
2021/06/18 02:00:07;;;;;;;5.78;4.18;;;;;;;14.73;92.71;92979.19;2099896;28;20434;-90
2021/06/18 02:01:08;;;;;;;5.20;4.60;;;;;;;14.75;92.45;92978.75;2091882;28;20401;-90
2021/06/18 02:02:11;;;;;;;6.38;4.43;;;;;;;14.66;92.65;92976.78;2095731;28;20028;-90
2021/06/18 02:03:14;;;;;;;4.60;4.15;;;;;;;14.67;92.99;92983.69;2090597;28;20051;-90
2021/06/18 02:05:50;;;;;;;;;;;;;;;14.58;94.25;92976.34;2139473;27;20122;-90
2021/06/18 02:06:53;;;;;;;4.95;4.30;;;;;;;14.57;93.08;92977.53;2128699;27;19946;-90
2021/06/18 02:07:56;;;;;;;7.88;4.30;;;;;;;14.63;93.18;92974.25;2120910;27;20031;-88
2021/06/18 02:08:59;;;;;;;7.65;4.60;;;;;;;14.61;93.17;92980.81;2111647;28;20024;-90
2021/06/18 02:10:03;;;;;;;5.30;4.50;;;;;;;14.64;93.76;92978.44;2119459;27;20096;-89
2021/06/18 02:11:04;;;;;;;4.95;4.30;;;;;;;14.59;92.82;92983.19;2121004;27;20476;-88
2021/06/18 02:12:05;;;;;;;4.72;4.05;;;;;;;14.57;92.74;92988.28;2117876;27;20055;-89
2021/06/18 02:13:10;;;;;;;4.80;4.40;;;;;;;14.63;92.27;92991.13;2112126;28;20032;-90
2021/06/18 02:14:16;;;;;;;5.13;4.70;;;;;;;14.57;93.09;92990.97;2113028;27;20071;-88
2021/06/18 02:15:17;;;;;;;4.70;4.30;;;;;;;14.61;92.38;92991.56;2111911;28;20023;-89
2021/06/18 02:16:18;;;;;;;7.30;4.47;;;;;;;14.71;91.82;92986.97;2101993;28;20032;-90
2021/06/18 02:17:20;;;;;;;4.32;3.92;;;;;;;14.60;92.29;92992.75;2111617;28;20024;-88
2021/06/18 02:18:25;;;;;;;4.90;4.50;;;;;;;14.67;92.56;92991.75;2129366;27;20022;-90
2021/06/18 02:19:28;;;;;;;6.47;4.50;;;;;;;14.60;92.19;92989.31;2128485;27;20038;-91
2021/06/18 02:20:30;;;;;;;4.85;4.40;;;;;;;14.58;92.28;92987.09;2120268;27;20156;-89
2021/06/18 02:21:32;;;;;;;5.07;4.57;;;;;;;14.67;92.07;92985.63;2112397;28;20020;-90
2021/06/18 02:22:38;;;;;;;5.43;4.93;;;;;;;14.70;92.25;92979.34;2112475;28;20439;-88
2021/06/18 02:23:40;;;;;;;5.93;5.40;;;;;;;15.35;87.99;92978.22;2104703;28;20035;-89
2021/06/18 02:24:41;;;;;;;5.55;4.95;;;;;;;15.33;88.20;92978.66;2111775;28;20476;-91
2021/06/18 02:25:44;;;;;;;5.45;5.05;;;;;;;15.25;89.11;92985.56;2111909;28;20062;-90
2021/06/18 02:26:46;;;;;;;5.43;4.88;;;;;;;15.23;88.77;92981.78;2103228;28;20101;-88
2021/06/18 02:27:47;;;;;;;7.88;5.35;;;;;;;15.30;88.66;92982.25;2114620;28;20034;-90
2021/06/18 02:28:48;;;;;;;6.10;5.50;;;;;;;15.21;89.02;92982.25;2112244;27;20035;-90
2021/06/18 02:29:48;;;;;;;5.53;5.03;;;;;;;15.19;89.23;92981.19;2120389;27;20027;-89
2021/06/18 02:30:51;;;;;;;5.38;4.88;;;;;;;15.33;88.85;92975.97;2111982;28;20020;-88
2021/06/18 02:31:55;;;;;;;5.78;5.07;;;;;;;15.32;88.60;92981.78;2105307;28;20056;-88
2021/06/18 02:32:58;;;;;;;6.82;5.53;;;;;;;15.25;89.45;92976.72;2109400;28;20023;-90
2021/06/18 02:33:59;;;;;;;6.05;5.20;;;;;;;15.29;88.42;92980.03;2105423;27;20095;-90
2021/06/18 02:35:00;;;;;;;5.38;4.85;;;;;;;15.30;89.04;92976.88;2112243;28;20114;-90
2021/06/18 02:36:01;;;;;;;8.00;5.28;;;;;;;15.39;88.03;92976.13;2128743;27;20014;-88
2021/06/18 02:37:03;;;;;;;6.03;4.80;;;;;;;15.36;88.27;92979.69;2128693;27;20061;-87
2021/06/18 02:38:05;;;;;;;7.63;5.20;;;;;;;15.37;88.48;92983.91;2120317;28;20122;-89
2021/06/18 02:39:10;;;;;;;7.13;5.13;;;;;;;15.32;88.77;92984.50;2109712;28;20058;-89
2021/06/18 02:40:11;;;;;;;5.35;4.93;;;;;;;15.29;88.50;92970.00;2112034;28;20024;-88
2021/06/18 02:41:12;;;;;;;5.60;5.07;;;;;;;15.21;89.51;92973.44;2103525;28;20032;-91
2021/06/18 02:42:13;;;;;;;6.05;5.47;;;;;;;15.24;89.65;92969.84;2111788;27;20522;-87
2021/06/18 02:43:14;;;;;;;5.93;5.20;;;;;;;15.33;88.18;92970.59;2111909;28;20437;-87
2021/06/18 02:44:14;;;;;;;7.18;4.97;;;;;;;15.44;87.68;92972.81;2112599;28;20125;-89
2021/06/18 02:45:15;;;;;;;5.97;5.03;;;;;;;15.50;87.69;92973.00;2128188;27;20043;-91
2021/06/18 02:46:29;;;;;;;5.60;5.10;;;;;;;15.46;87.91;92967.00;2128918;27;20027;-90
2021/06/18 02:47:39;;;;;;;5.32;4.82;;;;;;;15.40;88.43;92974.91;2121952;27;20395;-90
2021/06/18 02:48:45;;;;;;;5.93;5.05;;;;;;;15.31;88.57;92977.63;2121596;27;20114;-88
2021/06/18 02:49:54;;;;;;;6.25;4.80;;;;;;;15.27;89.51;92980.44;2111692;28;20023;-89
2021/06/18 02:51:03;;;;;;;5.70;4.73;;;;;;;15.06;89.80;92975.97;2122612;27;20072;-90
2021/06/18 02:52:10;;;;;;;8.52;5.20;;;;;;;15.13;90.24;92972.22;2119853;28;20449;-91
2021/06/18 02:53:28;;;;;;;5.10;4.70;;;;;;;15.11;90.57;92978.81;2100686;28;20024;-88
2021/06/18 02:54:43;;;;;;;5.43;4.93;;;;;;;15.08;90.10;92976.25;2108037;28;20032;-89
2021/06/18 02:55:51;;;;;;;4.85;4.32;;;;;;;15.02;90.84;92978.81;2106130;28;20393;-89
2021/06/18 02:56:59;;;;;;;7.55;5.05;;;;;;;14.97;90.56;92970.56;2121109;27;20500;-90
2021/06/18 02:58:10;;;;;;;6.07;5.00;;;;;;;15.02;90.33;92976.13;2119997;27;20023;-88
2021/06/18 02:59:36;;;;;;;5.70;5.10;;;;;;;14.98;91.33;92980.16;2125681;27;20031;-89
2021/06/18 03:00:40;;;;;;;5.90;5.07;;;;;;;14.95;91.20;92976.41;2125652;27;20027;-90
2021/06/18 03:01:41;;;;;;;6.05;5.03;;;;;;;14.93;91.38;92986.13;2118572;28;20502;-89
2021/06/18 03:03:03;;;;;;;5.35;4.95;;;;;;;14.96;91.56;92977.88;2114750;28;20031;-89
2021/06/18 03:04:05;;;;;;;5.40;5.00;;;;;;;14.88;91.19;92987.44;2111621;28;20412;-88
2021/06/18 03:05:09;;;;;;;6.10;5.30;;;;;;;14.88;91.45;92986.69;2099243;28;20074;-89
2021/06/18 03:06:15;;;;;;;6.72;5.15;;;;;;;14.95;91.78;92987.16;2116518;28;20128;-90
2021/06/18 03:07:22;;;;;;;5.43;4.78;;;;;;;15.00;91.42;92983.88;2128970;27;20027;-89
2021/06/18 03:08:29;;;;;;;7.10;5.00;;;;;;;15.04;91.30;92989.88;2119792;28;20031;-89
2021/06/18 03:09:41;;;;;;;6.00;5.50;;;;;;;15.12;89.91;92987.63;2112291;28;20020;-88
2021/06/18 03:10:46;;;;;;;6.00;5.50;;;;;;;15.14;90.13;92984.50;2112609;28;20594;-90
2021/06/18 03:11:48;;;;;;;5.57;5.18;;;;;;;15.15;89.66;92986.75;2102341;28;20032;-89
2021/06/18 03:12:51;;;;;;;5.93;5.25;;;;;;;15.25;88.34;92984.81;2105126;28;20070;-90
2021/06/18 03:13:56;;;;;;;5.47;4.90;;;;;;;15.27;88.15;92987.78;2106897;28;20463;-87
2021/06/18 03:15:03;;;;;;;6.00;5.45;;;;;;;15.30;88.01;92987.63;2108945;28;20024;-90
2021/06/18 03:16:06;;;;;;;6.53;5.20;;;;;;;15.27;88.67;92991.22;2104047;28;20032;-89
2021/06/18 03:17:10;;;;;;;4.97;4.57;;;;;;;15.34;87.96;92992.88;2098234;28;20041;-89
2021/06/18 03:18:14;;;;;;;6.15;4.93;;;;;;;15.38;88.16;92998.88;2105901;28;20058;-91
2021/06/18 03:19:19;;;;;;;6.93;5.30;;;;;;;15.36;88.42;92990.47;2090963;28;20067;-87
2021/06/18 03:20:21;;;;;;;10.20;5.30;;;;;;;15.38;88.43;92988.09;2101130;28;20026;-89
2021/06/18 03:21:24;;;;;;;6.03;5.20;;;;;;;15.25;89.16;92990.94;2106426;28;20032;-91
2021/06/18 03:22:27;;;;;;;5.43;4.93;;;;;;;15.24;89.07;92984.06;2114275;27;20031;-87
2021/06/18 03:23:31;;;;;;;5.70;5.05;;;;;;;15.17;89.49;92989.72;2114605;28;20102;-89
2021/06/18 03:24:33;;;;;;;5.70;5.25;;;;;;;15.17;89.08;92989.72;2114339;27;20385;-90
2021/06/18 03:25:35;;;;;;;5.40;4.90;;;;;;;15.17;89.02;92988.97;2105758;28;20020;-89
2021/06/18 03:26:38;;;;;;;7.90;5.80;;;;;;;15.13;89.84;92983.00;2089859;28;20460;-88
2021/06/18 03:27:39;;;;;;;5.85;5.35;;;;;;;15.16;89.63;92987.50;2097933;28;20378;-89
2021/06/18 03:28:40;;;;;;;6.30;5.47;;;;;;;15.17;89.67;92986.28;2093969;28;20020;-89
2021/06/18 03:29:41;;;;;;;6.18;5.68;;;;;;;15.05;89.90;92988.66;2097375;28;20032;-90
2021/06/18 03:30:47;;;;;;;8.25;5.32;;;;;;;15.07;89.05;92994.34;2097520;28;20064;-91
2021/06/18 03:31:48;;;;;;;6.45;4.85;;;;;;;15.04;89.74;92987.16;2095336;28;20039;-89
2021/06/18 03:32:51;;;;;;;5.50;5.00;;;;;;;14.98;90.70;92999.72;2097700;28;20035;-88
2021/06/18 03:33:52;;;;;;;6.15;5.57;;;;;;;14.94;90.37;92996.44;2106448;27;20028;-89
2021/06/18 03:34:54;;;;;;;6.55;5.25;;;;;;;14.93;90.09;93002.28;2114328;28;20026;-91
2021/06/18 03:35:55;;;;;;;6.00;4.90;;;;;;;14.92;90.95;93000.75;2101332;28;20103;-88
2021/06/18 03:36:58;;;;;;;5.60;4.97;;;;;;;14.83;91.12;93004.91;2101999;28;20043;-90
2021/06/18 03:38:00;;;;;;;6.90;5.25;;;;;;;14.88;91.60;93006.28;2100769;28;20496;-88
2021/06/18 03:39:01;;;;;;;5.68;5.18;;;;;;;14.88;91.10;93008.97;2103855;28;20556;-89
2021/06/18 03:40:03;;;;;;;5.53;5.10;;;;;;;14.83;90.95;93007.63;2097599;28;20024;-90
2021/06/18 03:41:05;;;;;;;5.63;5.07;;;;;;;14.86;91.32;93009.41;2089327;28;20036;-90
2021/06/18 03:42:06;;;;;;;10.25;5.50;;;;;;;14.85;90.90;93007.94;2107257;28;20024;-89
2021/06/18 03:43:08;;;;;;;5.40;4.90;;;;;;;14.82;92.06;93003.44;2109748;28;20028;-91
2021/06/18 03:44:09;;;;;;;5.97;5.47;;;;;;;14.81;91.71;93003.88;2101249;28;20071;-87
2021/06/18 03:45:11;;;;;;;7.18;5.40;;;;;;;14.87;92.13;93007.47;2098877;28;20024;-89
2021/06/18 03:46:13;;;;;;;5.45;4.97;;;;;;;14.85;90.84;93012.56;2096405;28;20087;-89
2021/06/18 03:47:15;;;;;;;7.05;4.80;;;;;;;14.88;91.14;93008.97;2106754;28;20065;-91
2021/06/18 03:48:18;;;;;;;5.70;5.20;;;;;;;14.83;91.09;93004.91;2115075;28;20107;-91
2021/06/18 03:49:19;;;;;;;5.50;5.10;;;;;;;14.83;91.45;93004.19;2106484;28;20020;-89
2021/06/18 03:50:22;;;;;;;7.85;5.70;;;;;;;14.85;91.45;93007.19;2086201;28;20017;-91
2021/06/18 03:51:23;;;;;;;5.30;4.90;;;;;;;14.79;91.59;93012.41;2094500;28;20021;-88
2021/06/18 03:52:24;;;;;;;6.25;5.63;;;;;;;14.84;92.13;93009.13;2098268;28;20107;-89
2021/06/18 03:53:25;;;;;;;7.78;5.28;;;;;;;14.80;91.72;93008.53;2105371;28;20099;-90
2021/06/18 03:54:26;;;;;;;6.00;5.47;;;;;;;14.74;91.90;93012.97;2097343;28;20048;-89
2021/06/18 03:55:27;;;;;;;5.43;4.93;;;;;;;14.79;92.19;93008.94;2111186;28;20457;-87
2021/06/18 03:56:29;;;;;;;6.00;5.40;;;;;;;14.76;92.12;93015.25;2101828;28;20480;-90
2021/06/18 03:57:32;;;;;;;5.57;5.07;;;;;;;14.76;92.07;93012.53;2098068;28;20044;-89
2021/06/18 03:58:35;;;;;;;5.50;4.97;;;;;;;14.84;92.37;93005.69;2087722;28;20027;-90
2021/06/18 03:59:41;;;;;;;5.63;5.00;;;;;;;14.81;92.36;93011.97;2089667;28;20021;-91
2021/06/18 04:00:43;;;;;;;5.63;5.13;;;;;;;14.83;91.98;93015.69;2098935;28;20032;-90
2021/06/18 04:01:49;;;;;;;5.38;4.93;;;;;;;14.82;91.75;93003.44;2097443;28;20028;-90
2021/06/18 04:02:50;;;;;;;7.85;5.22;;;;;;;14.80;91.75;93010.47;2095052;28;20343;-90
2021/06/18 04:03:53;;;;;;;5.55;5.05;;;;;;;14.75;92.43;93014.50;2100625;28;20022;-89
2021/06/18 04:04:55;;;;;;;5.30;4.80;;;;;;;14.78;91.73;93018.97;2099875;28;20047;-90
2021/06/18 04:06:02;;;;;;;5.70;5.00;;;;;;;14.78;92.36;93013.59;2113234;28;20388;-88
2021/06/18 04:07:06;;;;;;;7.18;4.82;;;;;;;14.82;91.93;93016.13;2105055;28;20428;-88
2021/06/18 04:08:08;;;;;;;5.75;4.97;;;;;;;14.85;91.56;93017.94;2109698;28;20036;-88
2021/06/18 04:09:09;;;;;;;6.72;5.18;;;;;;;14.89;91.89;93013.19;2109624;28;20023;-90
2021/06/18 04:10:10;;;;;;;5.30;4.80;;;;;;;14.93;92.53;93018.41;2096612;28;20119;-89
2021/06/18 04:11:11;;;;;;;6.45;5.15;;;;;;;14.94;92.12;93012.59;2097196;28;20048;-90
2021/06/18 04:12:12;;;;;;;6.28;5.05;;;;;;;14.98;91.20;93018.56;2088871;28;20032;-91
2021/06/18 04:13:14;;;;;;;4.47;4.15;;;;;;;14.97;91.34;93013.63;2097041;28;20028;-89
2021/06/18 04:14:15;;;;;;;5.53;4.72;;;;;;;15.01;91.58;93014.22;2096312;28;20501;-91
2021/06/18 04:15:18;;;;;;;6.43;4.82;;;;;;;15.11;90.29;93016.50;2091992;28;20103;-91
2021/06/18 04:16:19;;;;;;;5.95;4.95;;;;;;;15.09;90.30;93016.19;2099630;28;20035;-91
2021/06/18 04:17:20;;;;;;;8.13;5.25;;;;;;;15.09;90.63;93013.50;2101797;28;20508;-91
2021/06/18 04:18:23;;;;;;;6.40;4.97;;;;;;;15.15;90.42;93026.38;2104910;28;20035;-90
2021/06/18 04:19:25;;;;;;;5.45;5.05;;;;;;;15.18;90.45;93023.53;2114240;27;20032;-91
2021/06/18 04:20:28;;;;;;;6.50;4.80;;;;;;;15.16;90.30;93025.19;2104743;28;20032;-88
2021/06/18 04:21:30;;;;;;;5.35;4.85;;;;;;;15.18;91.11;93014.72;2098839;28;20020;-89
2021/06/18 04:22:32;;;;;;;7.90;4.60;;;;;;;15.24;90.22;93013.69;2102592;28;20024;-88
2021/06/18 04:23:33;;;;;;;5.45;4.70;;;;;;;15.32;89.65;93016.81;2101291;28;20032;-88
2021/06/18 04:24:34;;;;;;;6.13;5.00;;;;;;;15.29;90.54;93015.03;2102321;28;20489;-89
2021/06/18 04:25:34;;;;;;;4.93;4.40;;;;;;;15.32;90.13;93016.81;2109453;28;20054;-89
2021/06/18 04:26:35;;;;;;;4.45;4.15;;;;;;;15.42;89.58;93014.88;2105595;28;20073;-88
2021/06/18 04:27:36;;;;;;;5.00;4.60;;;;;;;15.43;90.21;93019.81;2097050;28;20029;-89
2021/06/18 04:28:40;;;;;;;5.70;5.00;;;;;;;15.49;88.60;93011.88;2095995;28;20032;-88
2021/06/18 04:29:41;;;;;;;5.20;4.57;;;;;;;15.46;90.73;93016.22;2089539;28;20029;-91
2021/06/18 04:30:42;;;;;;;5.07;4.57;;;;;;;15.50;88.90;93011.44;2096857;28;20024;-89
2021/06/18 04:31:44;;;;;;;4.82;4.13;;;;;;;15.55;89.28;93016.22;2105700;28;20117;-91
2021/06/18 04:32:45;;;;;;;4.90;4.50;;;;;;;15.55;89.13;93010.84;2105569;28;20500;-89
2021/06/18 04:33:46;;;;;;;5.20;4.75;;;;;;;15.58;89.11;93009.19;2107529;28;20091;-89
2021/06/18 04:34:47;;;;;;;5.35;4.85;;;;;;;15.65;88.07;92998.13;2097169;28;20085;-90
2021/06/18 04:35:47;;;;;;;4.88;4.47;;;;;;;15.66;88.11;93007.72;2096827;28;20055;-89
2021/06/18 04:36:48;;;;;;;9.73;4.68;;;;;;;15.64;89.81;93007.44;2097483;28;20160;-89
2021/06/18 04:37:49;;;;;;;4.63;4.22;;;;;;;15.66;89.73;93007.72;2085644;28;20021;-89
2021/06/18 04:38:50;;;;;;;5.15;4.68;;;;;;;15.66;89.51;93009.66;2093584;28;20027;-91
2021/06/18 04:39:50;;;;;;;7.60;4.55;;;;;;;15.68;90.30;93009.97;2100871;28;20035;-89
2021/06/18 04:40:52;;;;;;;4.60;4.18;;;;;;;15.71;89.38;93009.06;2100407;28;20362;-88
2021/06/18 04:41:52;;;;;;;4.80;4.50;;;;;;;15.71;89.93;93009.78;2101875;28;20039;-90
2021/06/18 04:42:53;;;;;;;5.78;4.45;;;;;;;15.77;90.49;93013.41;2104309;28;20028;-90
2021/06/18 04:43:54;;;;;;;5.30;4.28;;;;;;;15.78;89.95;93012.19;2097039;28;20025;-88
2021/06/18 04:44:55;;;;;;;6.45;4.50;;;;;;;15.84;89.70;93009.63;2091714;28;20020;-89
2021/06/18 04:45:56;;;;;;;4.55;4.15;;;;;;;15.87;89.59;93008.75;2096898;28;20050;-89
2021/06/18 04:46:58;;;;;;;4.65;4.25;;;;;;;15.91;89.09;93013.97;2096255;28;20137;-91
2021/06/18 04:47:59;;;;;;;6.35;4.82;;;;;;;16.02;88.70;93012.31;2088587;28;20013;-90
2021/06/18 04:49:00;;;;;;;5.03;4.57;;;;;;;16.02;89.20;93012.31;2105522;28;20484;-91
2021/06/18 04:50:00;;;;;;;8.30;4.13;;;;;;;16.11;89.08;93014.22;2113661;28;20023;-89
2021/06/18 04:51:01;;;;;;;4.95;4.47;;;;;;;16.21;87.92;93012.28;2102920;28;20032;-90
2021/06/18 04:52:03;;;;;;;5.10;4.70;;;;;;;16.23;87.63;93007.91;2104523;28;20417;-89
2021/06/18 04:53:10;;;;;;;5.43;4.32;;;;;;;16.31;88.29;93003.69;2094909;28;20032;-88
2021/06/18 04:54:11;;;;;;;5.45;4.50;;;;;;;16.39;89.07;93004.13;2097356;28;20028;-90
2021/06/18 04:55:16;;;;;;;5.20;4.38;;;;;;;16.46;88.82;92998.41;2095594;28;20031;-86
2021/06/18 04:56:17;;;;;;;4.93;4.15;;;;;;;16.53;87.72;93010.81;2100569;27;20485;-89
2021/06/18 04:57:17;;;;;;;5.57;4.25;;;;;;;16.68;88.60;93005.47;2099353;28;20079;-90
2021/06/18 04:58:19;;;;;;;5.50;5.00;;;;;;;16.83;85.87;93006.34;2087126;28;20033;-90
2021/06/18 04:59:20;;;;;;;5.95;4.57;;;;;;;16.91;86.85;93010.22;2087906;28;20024;-87
2021/06/18 05:00:24;;;;;;;4.82;4.32;;;;;;;17.03;85.17;93009.25;2087772;28;20116;-89